sensor_id;sensor_type;location;lat;lon;timestamp;temperature;humidity
25050;DHT22;13046;49.814;9.918;2023-07-09T00:00:43;20.30;99.90
25050;DHT22;13046;49.814;9.918;2023-07-09T00:03:11;20.40;99.90
25050;DHT22;13046;49.814;9.918;2023-07-09T00:05:37;20.30;99.90
25050;DHT22;13046;49.814;9.918;2023-07-09T00:08:02;20.10;99.90
25050;DHT22;13046;49.814;9.918;2023-07-09T00:10:28;20.10;99.90
25050;DHT22;13046;49.814;9.918;2023-07-09T00:12:54;20.10;99.90
25050;DHT22;13046;49.814;9.918;2023-07-09T00:15:20;20.10;99.90
25050;DHT22;13046;49.814;9.918;2023-07-09T00:17:47;20.10;99.90
25050;DHT22;13046;49.814;9.918;2023-07-09T00:20:19;20.00;99.90
25050;DHT22;13046;49.814;9.918;2023-07-09T00:22:44;19.90;99.90
25050;DHT22;13046;49.814;9.918;2023-07-09T00:25:19;19.90;99.90
25050;DHT22;13046;49.814;9.918;2023-07-09T00:27:45;20.00;99.90
25050;DHT22;13046;49.814;9.918;2023-07-09T00:30:19;19.90;99.90
25050;DHT22;13046;49.814;9.918;2023-07-09T00:32:45;19.90;99.90
25050;DHT22;13046;49.814;9.918;2023-07-09T00:35:13;19.80;99.90
25050;DHT22;13046;49.814;9.918;2023-07-09T00:37:45;19.70;99.90
25050;DHT22;13046;49.814;9.918;2023-07-09T00:40:17;19.60;99.90
25050;DHT22;13046;49.814;9.918;2023-07-09T00:42:49;19.60;99.90
25050;DHT22;13046;49.814;9.918;2023-07-09T00:45:24;19.60;99.90
25050;DHT22;13046;49.814;9.918;2023-07-09T00:47:58;19.60;99.90
25050;DHT22;13046;49.814;9.918;2023-07-09T00:50:31;19.60;99.90
25050;DHT22;13046;49.814;9.918;2023-07-09T00:53:03;19.60;99.90
25050;DHT22;13046;49.814;9.918;2023-07-09T00:55:36;19.60;99.90
25050;DHT22;13046;49.814;9.918;2023-07-09T00:58:06;19.50;99.90
25050;DHT22;13046;49.814;9.918;2023-07-09T01:00:46;19.40;99.90
25050;DHT22;13046;49.814;9.918;2023-07-09T01:03:20;19.20;99.90
25050;DHT22;13046;49.814;9.918;2023-07-09T01:05:48;19.10;99.90
25050;DHT22;13046;49.814;9.918;2023-07-09T01:08:18;19.10;99.90
25050;DHT22;13046;49.814;9.918;2023-07-09T01:10:46;19.10;99.90
25050;DHT22;13046;49.814;9.918;2023-07-09T01:13:12;19.00;99.90
25050;DHT22;13046;49.814;9.918;2023-07-09T01:15:39;19.00;99.90
25050;DHT22;13046;49.814;9.918;2023-07-09T01:18:05;19.10;99.90
25050;DHT22;13046;49.814;9.918;2023-07-09T01:20:31;18.90;99.90
25050;DHT22;13046;49.814;9.918;2023-07-09T01:22:57;18.90;99.90
25050;DHT22;13046;49.814;9.918;2023-07-09T01:25:26;18.90;99.90
25050;DHT22;13046;49.814;9.918;2023-07-09T01:27:53;18.90;99.90
25050;DHT22;13046;49.814;9.918;2023-07-09T01:30:21;18.80;99.90
25050;DHT22;13046;49.814;9.918;2023-07-09T01:32:50;18.80;99.90
25050;DHT22;13046;49.814;9.918;2023-07-09T01:35:18;18.80;99.90
25050;DHT22;13046;49.814;9.918;2023-07-09T01:37:46;18.70;99.90
25050;DHT22;13046;49.814;9.918;2023-07-09T01:40:14;18.70;99.90
25050;DHT22;13046;49.814;9.918;2023-07-09T01:42:40;18.70;99.90
25050;DHT22;13046;49.814;9.918;2023-07-09T01:45:08;18.60;99.90
25050;DHT22;13046;49.814;9.918;2023-07-09T01:47:36;18.50;99.90
25050;DHT22;13046;49.814;9.918;2023-07-09T01:50:03;18.50;99.90
25050;DHT22;13046;49.814;9.918;2023-07-09T01:52:30;18.50;99.90
25050;DHT22;13046;49.814;9.918;2023-07-09T01:54:57;18.50;99.90
25050;DHT22;13046;49.814;9.918;2023-07-09T01:57:25;18.40;99.90
25050;DHT22;13046;49.814;9.918;2023-07-09T01:59:54;18.40;99.90
25050;DHT22;13046;49.814;9.918;2023-07-09T02:02:23;18.30;99.90
25050;DHT22;13046;49.814;9.918;2023-07-09T02:04:54;18.30;99.90
25050;DHT22;13046;49.814;9.918;2023-07-09T02:07:21;18.30;99.90
25050;DHT22;13046;49.814;9.918;2023-07-09T02:09:47;18.30;99.90
25050;DHT22;13046;49.814;9.918;2023-07-09T02:12:15;18.30;99.90
25050;DHT22;13046;49.814;9.918;2023-07-09T02:14:42;18.30;99.90
25050;DHT22;13046;49.814;9.918;2023-07-09T02:17:09;18.20;99.90
25050;DHT22;13046;49.814;9.918;2023-07-09T02:19:36;18.20;99.90
25050;DHT22;13046;49.814;9.918;2023-07-09T02:22:02;18.20;99.90
25050;DHT22;13046;49.814;9.918;2023-07-09T02:24:28;18.20;99.90
25050;DHT22;13046;49.814;9.918;2023-07-09T02:26:54;18.20;99.90
25050;DHT22;13046;49.814;9.918;2023-07-09T02:29:20;18.10;99.90
25050;DHT22;13046;49.814;9.918;2023-07-09T02:31:49;18.00;99.90
25050;DHT22;13046;49.814;9.918;2023-07-09T02:34:15;18.00;99.90
25050;DHT22;13046;49.814;9.918;2023-07-09T02:36:41;18.00;99.90
25050;DHT22;13046;49.814;9.918;2023-07-09T02:39:09;17.90;99.90
25050;DHT22;13046;49.814;9.918;2023-07-09T02:41:36;17.90;99.90
25050;DHT22;13046;49.814;9.918;2023-07-09T02:44:02;17.60;99.90
25050;DHT22;13046;49.814;9.918;2023-07-09T02:46:28;17.60;99.90
25050;DHT22;13046;49.814;9.918;2023-07-09T02:48:55;17.60;99.90
25050;DHT22;13046;49.814;9.918;2023-07-09T02:51:20;17.70;99.90
25050;DHT22;13046;49.814;9.918;2023-07-09T02:53:47;17.70;99.90
25050;DHT22;13046;49.814;9.918;2023-07-09T02:56:13;17.70;99.90
25050;DHT22;13046;49.814;9.918;2023-07-09T02:58:38;17.70;99.90
25050;DHT22;13046;49.814;9.918;2023-07-09T03:01:04;17.70;99.90
25050;DHT22;13046;49.814;9.918;2023-07-09T03:03:31;17.70;99.90
25050;DHT22;13046;49.814;9.918;2023-07-09T03:05:57;17.70;99.90
25050;DHT22;13046;49.814;9.918;2023-07-09T03:08:22;17.70;99.90
25050;DHT22;13046;49.814;9.918;2023-07-09T03:10:48;17.70;99.90
25050;DHT22;13046;49.814;9.918;2023-07-09T03:13:14;17.70;99.90
25050;DHT22;13046;49.814;9.918;2023-07-09T03:15:39;17.70;99.90
25050;DHT22;13046;49.814;9.918;2023-07-09T03:18:05;17.70;99.90
25050;DHT22;13046;49.814;9.918;2023-07-09T03:20:30;17.60;99.90
25050;DHT22;13046;49.814;9.918;2023-07-09T03:22:57;17.60;99.90
25050;DHT22;13046;49.814;9.918;2023-07-09T03:25:22;17.60;99.90
25050;DHT22;13046;49.814;9.918;2023-07-09T03:27:48;17.50;99.90
25050;DHT22;13046;49.814;9.918;2023-07-09T03:30:14;17.50;99.90
25050;DHT22;13046;49.814;9.918;2023-07-09T03:32:40;17.40;99.90
25050;DHT22;13046;49.814;9.918;2023-07-09T03:35:06;17.40;99.90
25050;DHT22;13046;49.814;9.918;2023-07-09T03:37:32;17.40;99.90
25050;DHT22;13046;49.814;9.918;2023-07-09T03:39:58;17.40;99.90
25050;DHT22;13046;49.814;9.918;2023-07-09T03:42:24;17.30;99.90
25050;DHT22;13046;49.814;9.918;2023-07-09T03:44:49;17.30;99.90
25050;DHT22;13046;49.814;9.918;2023-07-09T03:47:15;17.30;99.90
25050;DHT22;13046;49.814;9.918;2023-07-09T03:49:41;17.40;99.90
25050;DHT22;13046;49.814;9.918;2023-07-09T03:52:09;17.50;99.90
25050;DHT22;13046;49.814;9.918;2023-07-09T03:54:35;17.40;99.90
25050;DHT22;13046;49.814;9.918;2023-07-09T03:57:00;17.40;99.90
25050;DHT22;13046;49.814;9.918;2023-07-09T03:59:26;17.30;99.90
25050;DHT22;13046;49.814;9.918;2023-07-09T04:01:52;17.30;99.90
25050;DHT22;13046;49.814;9.918;2023-07-09T04:04:17;17.40;99.90
25050;DHT22;13046;49.814;9.918;2023-07-09T04:06:46;17.40;99.90
25050;DHT22;13046;49.814;9.918;2023-07-09T04:09:12;17.30;99.90
25050;DHT22;13046;49.814;9.918;2023-07-09T04:11:37;17.30;99.90
25050;DHT22;13046;49.814;9.918;2023-07-09T04:14:03;17.30;99.90
25050;DHT22;13046;49.814;9.918;2023-07-09T04:16:29;17.20;99.90
25050;DHT22;13046;49.814;9.918;2023-07-09T04:18:54;17.20;99.90
25050;DHT22;13046;49.814;9.918;2023-07-09T04:21:20;17.30;99.90
25050;DHT22;13046;49.814;9.918;2023-07-09T04:23:46;17.30;99.90
25050;DHT22;13046;49.814;9.918;2023-07-09T04:26:14;17.40;99.90
25050;DHT22;13046;49.814;9.918;2023-07-09T04:28:40;17.30;99.90
25050;DHT22;13046;49.814;9.918;2023-07-09T04:31:06;17.40;99.90
25050;DHT22;13046;49.814;9.918;2023-07-09T04:33:31;17.50;99.90
25050;DHT22;13046;49.814;9.918;2023-07-09T04:35:57;17.50;99.90
25050;DHT22;13046;49.814;9.918;2023-07-09T04:38:23;17.60;99.90
25050;DHT22;13046;49.814;9.918;2023-07-09T04:40:48;17.60;99.90
25050;DHT22;13046;49.814;9.918;2023-07-09T04:43:14;17.60;99.90
25050;DHT22;13046;49.814;9.918;2023-07-09T04:45:40;17.70;99.90
25050;DHT22;13046;49.814;9.918;2023-07-09T04:48:06;17.70;99.90
25050;DHT22;13046;49.814;9.918;2023-07-09T04:50:31;17.80;99.90
25050;DHT22;13046;49.814;9.918;2023-07-09T04:52:58;17.80;99.90
25050;DHT22;13046;49.814;9.918;2023-07-09T04:55:24;17.90;99.90
25050;DHT22;13046;49.814;9.918;2023-07-09T04:57:52;18.00;99.90
25050;DHT22;13046;49.814;9.918;2023-07-09T05:00:18;18.10;99.90
25050;DHT22;13046;49.814;9.918;2023-07-09T05:02:44;18.20;99.90
25050;DHT22;13046;49.814;9.918;2023-07-09T05:05:09;18.30;99.90
25050;DHT22;13046;49.814;9.918;2023-07-09T05:07:37;18.40;99.90
25050;DHT22;13046;49.814;9.918;2023-07-09T05:10:03;18.50;99.90
25050;DHT22;13046;49.814;9.918;2023-07-09T05:12:29;18.70;99.90
25050;DHT22;13046;49.814;9.918;2023-07-09T05:14:55;18.70;99.90
25050;DHT22;13046;49.814;9.918;2023-07-09T05:17:22;18.80;99.90
25050;DHT22;13046;49.814;9.918;2023-07-09T05:19:50;18.90;99.90
25050;DHT22;13046;49.814;9.918;2023-07-09T05:22:16;19.00;99.90
25050;DHT22;13046;49.814;9.918;2023-07-09T05:24:41;19.10;99.90
25050;DHT22;13046;49.814;9.918;2023-07-09T05:27:08;19.20;99.90
25050;DHT22;13046;49.814;9.918;2023-07-09T05:29:34;19.30;99.90
25050;DHT22;13046;49.814;9.918;2023-07-09T05:32:00;19.40;99.90
25050;DHT22;13046;49.814;9.918;2023-07-09T05:34:25;19.50;99.90
25050;DHT22;13046;49.814;9.918;2023-07-09T05:36:51;19.70;99.90
25050;DHT22;13046;49.814;9.918;2023-07-09T05:39:17;19.90;99.90
25050;DHT22;13046;49.814;9.918;2023-07-09T05:41:42;20.00;99.90
25050;DHT22;13046;49.814;9.918;2023-07-09T05:44:08;20.20;99.90
25050;DHT22;13046;49.814;9.918;2023-07-09T05:46:36;20.40;99.90
25050;DHT22;13046;49.814;9.918;2023-07-09T05:49:03;20.60;99.90
25050;DHT22;13046;49.814;9.918;2023-07-09T05:51:29;20.60;99.90
25050;DHT22;13046;49.814;9.918;2023-07-09T05:53:55;20.70;99.90
25050;DHT22;13046;49.814;9.918;2023-07-09T05:56:21;20.80;99.90
25050;DHT22;13046;49.814;9.918;2023-07-09T05:58:46;21.00;99.90
25050;DHT22;13046;49.814;9.918;2023-07-09T06:01:13;21.10;99.90
25050;DHT22;13046;49.814;9.918;2023-07-09T06:03:38;21.30;99.90
25050;DHT22;13046;49.814;9.918;2023-07-09T06:06:05;21.50;99.90
25050;DHT22;13046;49.814;9.918;2023-07-09T06:08:32;21.60;99.90
25050;DHT22;13046;49.814;9.918;2023-07-09T06:11:00;21.80;99.90
25050;DHT22;13046;49.814;9.918;2023-07-09T06:13:27;21.90;99.90
25050;DHT22;13046;49.814;9.918;2023-07-09T06:15:54;22.10;99.90
25050;DHT22;13046;49.814;9.918;2023-07-09T06:18:21;22.10;99.90
25050;DHT22;13046;49.814;9.918;2023-07-09T06:20:51;22.20;99.90
25050;DHT22;13046;49.814;9.918;2023-07-09T06:23:18;22.20;99.90
25050;DHT22;13046;49.814;9.918;2023-07-09T06:25:44;22.30;99.90
25050;DHT22;13046;49.814;9.918;2023-07-09T06:28:17;22.40;99.90
25050;DHT22;13046;49.814;9.918;2023-07-09T06:30:44;22.60;99.90
25050;DHT22;13046;49.814;9.918;2023-07-09T06:33:12;22.80;99.90
25050;DHT22;13046;49.814;9.918;2023-07-09T06:35:38;22.90;99.90
25050;DHT22;13046;49.814;9.918;2023-07-09T06:38:05;23.10;99.90
25050;DHT22;13046;49.814;9.918;2023-07-09T06:40:31;23.20;99.90
25050;DHT22;13046;49.814;9.918;2023-07-09T06:42:56;23.30;99.90
25050;DHT22;13046;49.814;9.918;2023-07-09T06:45:30;23.40;99.90
25050;DHT22;13046;49.814;9.918;2023-07-09T06:47:57;23.60;99.90
25050;DHT22;13046;49.814;9.918;2023-07-09T06:50:22;23.70;99.90
25050;DHT22;13046;49.814;9.918;2023-07-09T06:52:48;24.00;99.90
25050;DHT22;13046;49.814;9.918;2023-07-09T06:55:14;24.20;99.90
25050;DHT22;13046;49.814;9.918;2023-07-09T06:57:39;24.40;99.90
25050;DHT22;13046;49.814;9.918;2023-07-09T07:00:05;24.70;99.90
25050;DHT22;13046;49.814;9.918;2023-07-09T07:02:32;24.80;99.90
25050;DHT22;13046;49.814;9.918;2023-07-09T07:04:58;25.00;99.90
25050;DHT22;13046;49.814;9.918;2023-07-09T07:07:24;25.10;99.90
25050;DHT22;13046;49.814;9.918;2023-07-09T07:09:50;25.10;99.90
25050;DHT22;13046;49.814;9.918;2023-07-09T07:12:26;25.20;99.90
25050;DHT22;13046;49.814;9.918;2023-07-09T07:14:53;25.40;99.90
25050;DHT22;13046;49.814;9.918;2023-07-09T07:17:19;25.60;99.90
25050;DHT22;13046;49.814;9.918;2023-07-09T07:19:44;25.80;99.90
25050;DHT22;13046;49.814;9.918;2023-07-09T07:22:10;26.00;99.90
25050;DHT22;13046;49.814;9.918;2023-07-09T07:24:36;26.20;99.90
25050;DHT22;13046;49.814;9.918;2023-07-09T07:27:01;26.30;99.90
25050;DHT22;13046;49.814;9.918;2023-07-09T07:29:27;26.50;99.90
25050;DHT22;13046;49.814;9.918;2023-07-09T07:31:54;26.60;99.90
25050;DHT22;13046;49.814;9.918;2023-07-09T07:34:20;26.70;99.90
25050;DHT22;13046;49.814;9.918;2023-07-09T07:36:46;26.80;99.90
25050;DHT22;13046;49.814;9.918;2023-07-09T07:39:12;27.00;99.90
25050;DHT22;13046;49.814;9.918;2023-07-09T07:41:38;27.20;99.90
25050;DHT22;13046;49.814;9.918;2023-07-09T07:44:04;27.40;99.90
25050;DHT22;13046;49.814;9.918;2023-07-09T07:46:30;27.60;99.90
25050;DHT22;13046;49.814;9.918;2023-07-09T07:48:58;27.80;99.90
25050;DHT22;13046;49.814;9.918;2023-07-09T07:51:23;27.80;99.90
25050;DHT22;13046;49.814;9.918;2023-07-09T07:53:49;27.90;99.90
25050;DHT22;13046;49.814;9.918;2023-07-09T08:01:07;28.00;99.90
